createdAt,value
2022-08-23T00:02:24.254Z,40.43
2022-08-23T00:05:08.285Z,41.03
2022-08-23T00:07:38.581Z,40.89
2022-08-23T00:10:07.110Z,40.80
2022-08-23T00:12:33.665Z,40.97
2022-08-23T00:15:01.683Z,41.45
2022-08-23T00:17:34.129Z,41.10
2022-08-23T00:20:01.681Z,41.76
2022-08-23T00:22:28.246Z,41.92
2022-08-23T00:24:54.793Z,41.77
2022-08-23T00:27:21.582Z,42.41
2022-08-23T00:29:50.415Z,42.45
2022-08-23T00:32:21.547Z,42.88
2022-08-23T00:34:48.196Z,43.19
2022-08-23T00:37:14.905Z,42.82
2022-08-23T00:39:41.654Z,43.11
2022-08-23T00:42:13.726Z,43.41
2022-08-23T00:44:40.270Z,43.05
2022-08-23T00:47:07.952Z,43.44
2022-08-23T00:49:38.933Z,43.55
2022-08-23T00:52:10.713Z,44.08
2022-08-23T00:54:39.809Z,43.80
2022-08-23T00:57:10.689Z,43.99
2022-08-23T00:59:37.471Z,44.12
2022-08-23T01:02:05.152Z,44.40
2022-08-23T01:04:37.595Z,44.20
2022-08-23T01:07:12.915Z,44.51
2022-08-23T01:09:42.090Z,44.49
2022-08-23T01:12:14.262Z,44.90
2022-08-23T01:14:46.578Z,44.89
2022-08-23T01:17:17.925Z,45.18
2022-08-23T01:19:50.737Z,45.35
2022-08-23T01:22:27.143Z,45.55
2022-08-23T01:25:07.372Z,45.02
2022-08-23T01:27:35.893Z,45.56
2022-08-23T01:30:03.894Z,45.51
2022-08-23T01:32:30.520Z,45.37
2022-08-23T01:34:57.086Z,45.09
2022-08-23T01:37:23.845Z,45.20
2022-08-23T01:39:50.453Z,45.21
2022-08-23T01:42:18.460Z,45.09
2022-08-23T01:44:45.503Z,45.20
2022-08-23T01:47:12.045Z,44.99
2022-08-23T01:49:38.583Z,44.88
2022-08-23T01:52:05.571Z,44.59
2022-08-23T01:54:32.490Z,44.59
2022-08-23T01:56:59.235Z,44.86
2022-08-23T01:59:27.196Z,44.07
2022-08-23T02:01:53.914Z,43.79
2022-08-23T02:04:20.531Z,43.22
2022-08-23T02:06:47.110Z,42.92
2022-08-23T02:09:17.306Z,43.23
2022-08-23T02:11:45.443Z,42.86
2022-08-23T02:14:14.506Z,43.05
2022-08-23T02:16:53.740Z,42.61
2022-08-23T02:19:32.238Z,42.58
2022-08-23T02:21:58.971Z,42.85
2022-08-23T02:24:26.416Z,42.22
2022-08-23T02:26:57.717Z,42.76
2022-08-23T02:29:25.956Z,42.03
2022-08-23T02:31:54.304Z,42.56
2022-08-23T02:34:23.117Z,42.46
2022-08-23T02:36:51.944Z,42.14
2022-08-23T02:39:19.346Z,42.40
2022-08-23T02:41:45.969Z,41.95
2022-08-23T02:44:13.426Z,41.89
2022-08-23T02:46:41.195Z,41.73
2022-08-23T02:49:09.414Z,41.73
2022-08-23T02:51:36.406Z,41.72
2022-08-23T02:54:03.648Z,42.12
2022-08-23T02:56:30.744Z,41.82
2022-08-23T02:58:57.409Z,42.11
2022-08-23T03:01:26.940Z,41.85
2022-08-23T03:03:53.840Z,41.84
2022-08-23T03:06:24.485Z,41.83
2022-08-23T03:08:51.867Z,42.21
2022-08-23T03:11:19.960Z,41.67
2022-08-23T03:13:46.573Z,41.72
2022-08-23T03:16:14.785Z,41.84
2022-08-23T03:18:42.471Z,41.90
2022-08-23T03:21:09.990Z,42.13
2022-08-23T03:23:39.022Z,42.22
2022-08-23T03:26:08.005Z,41.56
2022-08-23T03:28:36.404Z,42.10
2022-08-23T03:31:04.176Z,41.88
2022-08-23T03:33:30.826Z,42.16
2022-08-23T03:35:58.801Z,41.91
2022-08-23T03:38:25.628Z,41.72
2022-08-23T03:40:53.798Z,42.17
2022-08-23T03:43:20.770Z,42.29
2022-08-23T03:45:47.714Z,41.79
2022-08-23T03:48:14.368Z,42.20
2022-08-23T03:50:41.063Z,42.25
2022-08-23T03:53:07.921Z,42.29
2022-08-23T03:55:42.225Z,42.76
2022-08-23T03:58:11.664Z,43.01
2022-08-23T04:00:38.937Z,43.38
2022-08-23T04:03:05.921Z,43.63
2022-08-23T04:05:32.640Z,43.29
2022-08-23T04:08:00.111Z,43.60
2022-08-23T04:10:26.859Z,43.85
2022-08-23T04:12:53.474Z,43.77
2022-08-23T04:15:22.159Z,44.08
2022-08-23T04:17:48.760Z,44.19
2022-08-23T04:20:16.243Z,44.21
2022-08-23T04:22:42.959Z,44.75
2022-08-23T04:25:34.480Z,44.54
2022-08-23T04:27:59.972Z,45.01
2022-08-23T04:30:28.704Z,45.04
2022-08-23T04:32:55.602Z,45.17
2022-08-23T04:35:22.758Z,44.77
2022-08-23T04:37:49.442Z,44.70
2022-08-23T04:40:16.144Z,44.64
2022-08-23T04:42:43.014Z,44.69
2022-08-23T04:45:09.862Z,44.51
2022-08-23T04:47:38.115Z,44.91
2022-08-23T04:50:11.484Z,44.54
2022-08-23T04:52:43.478Z,44.19
2022-08-23T04:55:16.496Z,44.63
2022-08-23T04:57:43.350Z,44.41
2022-08-23T05:00:12.657Z,44.33
2022-08-23T05:02:40.655Z,44.01
2022-08-23T05:05:08.451Z,43.87
2022-08-23T05:07:42.600Z,43.58
2022-08-23T05:10:12.639Z,42.41
2022-08-23T05:12:39.378Z,40.94
2022-08-23T05:15:07.011Z,40.22
2022-08-23T05:17:33.701Z,40.36
2022-08-23T05:20:01.926Z,40.57
2022-08-23T05:22:28.512Z,39.78
2022-08-23T05:24:55.132Z,39.61
2022-08-23T05:27:21.716Z,39.29
2022-08-23T05:29:50.249Z,38.93
2022-08-23T05:32:16.818Z,37.93
2022-08-23T05:34:43.398Z,37.71
2022-08-23T05:37:11.685Z,36.72
2022-08-23T05:39:38.395Z,35.89
2022-08-23T05:42:06.027Z,35.01
2022-08-23T05:44:36.702Z,34.29
2022-08-23T05:47:05.123Z,34.16
2022-08-23T05:49:38.024Z,33.45
2022-08-23T05:52:05.825Z,32.92
2022-08-23T05:54:34.040Z,33.20
2022-08-23T05:57:00.902Z,32.51
2022-08-23T05:59:27.927Z,32.71
2022-08-23T06:01:54.764Z,32.23
2022-08-23T06:04:22.275Z,32.19
2022-08-23T06:06:49.002Z,32.62
2022-08-23T06:09:17.615Z,32.37
2022-08-23T06:11:47.742Z,31.63
2022-08-23T06:14:16.092Z,32.21
2022-08-23T06:16:44.577Z,31.65
2022-08-23T06:19:11.634Z,31.21
2022-08-23T06:21:39.078Z,30.62
2022-08-23T06:24:06.438Z,30.75
2022-08-23T06:26:35.194Z,30.73
2022-08-23T06:29:05.785Z,30.17
2022-08-23T06:31:32.837Z,30.13
2022-08-23T06:34:00.768Z,29.87
2022-08-23T06:36:27.403Z,29.57
2022-08-23T06:38:54.618Z,29.68
2022-08-23T06:41:21.205Z,29.09
2022-08-23T06:43:48.773Z,29.02
2022-08-23T06:46:21.129Z,28.32
2022-08-23T06:48:50.720Z,28.10
2022-08-23T06:51:23.889Z,27.58
2022-08-23T06:53:53.748Z,27.50
2022-08-23T06:56:20.794Z,27.59
2022-08-23T06:58:47.425Z,27.63
2022-08-23T07:01:44.217Z,27.05
2022-08-23T07:04:08.800Z,26.86
2022-08-23T07:06:35.769Z,26.87
2022-08-23T07:09:03.558Z,27.10
2022-08-23T07:11:30.294Z,27.53
2022-08-23T07:13:57.438Z,26.98
2022-08-23T07:16:25.640Z,27.00
2022-08-23T07:18:52.375Z,27.09
2022-08-23T07:21:19.002Z,26.99
2022-08-23T07:23:58.810Z,26.88
2022-08-23T07:26:25.974Z,27.17
2022-08-23T07:28:55.439Z,26.94
2022-08-23T07:31:26.493Z,27.04
2022-08-23T07:33:54.690Z,26.56
2022-08-23T07:36:28.007Z,26.97
2022-08-23T07:38:55.855Z,26.95
2022-08-23T07:41:24.098Z,26.85
2022-08-23T07:43:50.691Z,26.67
2022-08-23T07:46:18.239Z,26.48
2022-08-23T07:48:54.664Z,26.87
2022-08-23T07:51:21.945Z,26.15
2022-08-23T07:53:48.581Z,26.22
2022-08-23T07:56:16.910Z,26.11
2022-08-23T07:58:43.654Z,26.35
2022-08-23T08:01:12.691Z,26.04
2022-08-23T08:03:39.638Z,26.00
2022-08-23T08:06:10.298Z,25.93
2022-08-23T08:08:36.931Z,25.87
2022-08-23T08:11:03.537Z,26.19
2022-08-23T08:13:30.176Z,26.09
2022-08-23T08:15:56.843Z,25.77
2022-08-23T08:18:23.381Z,25.84
2022-08-23T08:20:49.953Z,25.45
2022-08-23T08:23:17.980Z,25.86
2022-08-23T08:25:44.529Z,25.88
2022-08-23T08:28:15.758Z,25.99
2022-08-23T08:30:42.891Z,25.56
2022-08-23T08:33:10.295Z,25.32
2022-08-23T08:35:36.914Z,25.39
2022-08-23T08:38:03.749Z,26.18
2022-08-23T08:40:39.102Z,25.48
2022-08-23T08:43:26.079Z,25.02
2022-08-23T08:46:02.670Z,25.25
2022-08-23T08:48:57.502Z,25.20
2022-08-23T08:52:08.007Z,25.56
2022-08-23T08:54:49.636Z,25.23
2022-08-23T08:57:27.478Z,25.17
2022-08-23T09:00:02.610Z,25.07
2022-08-23T09:03:05.256Z,25.12
2022-08-23T09:05:37.919Z,24.97
2022-08-23T09:08:36.291Z,25.15
2022-08-23T09:11:09.292Z,25.10
2022-08-23T09:13:55.229Z,24.88
2022-08-23T09:16:31.790Z,25.27
2022-08-23T09:19:01.205Z,25.08
2022-08-23T09:21:31.931Z,25.33
2022-08-23T09:24:00.871Z,25.05
2022-08-23T09:26:30.814Z,25.34
2022-08-23T09:29:02.239Z,25.49
2022-08-23T09:31:40.454Z,25.71
2022-08-23T09:34:07.881Z,25.43
2022-08-23T09:36:37.394Z,26.26
2022-08-23T09:39:06.598Z,26.33
2022-08-23T09:41:35.717Z,26.53
2022-08-23T09:44:06.392Z,25.56
2022-08-23T09:46:37.846Z,25.46
2022-08-23T09:49:24.987Z,25.39
2022-08-23T09:51:54.264Z,25.33
2022-08-23T09:54:27.876Z,25.30
2022-08-23T09:56:56.882Z,25.27
2022-08-23T09:59:38.181Z,25.57
2022-08-23T10:02:09.447Z,25.50
2022-08-23T10:04:42.444Z,25.43
2022-08-23T10:07:24.723Z,25.46
2022-08-23T10:09:51.410Z,25.09
2022-08-23T10:12:17.982Z,24.97
2022-08-23T10:14:46.239Z,24.97
2022-08-23T10:17:28.971Z,24.95
2022-08-23T10:20:10.526Z,24.75
2022-08-23T10:22:43.744Z,25.40
2022-08-23T10:25:18.682Z,25.29
2022-08-23T10:27:53.838Z,25.25
2022-08-23T10:30:27.805Z,25.05
2022-08-23T10:33:05.387Z,25.18
2022-08-23T10:35:41.705Z,25.42
2022-08-23T10:38:29.582Z,25.76
2022-08-23T10:41:03.258Z,25.59
2022-08-23T10:43:41.555Z,24.85
2022-08-23T10:46:09.788Z,26.25
2022-08-23T10:48:41.100Z,25.58
2022-08-23T10:51:17.861Z,25.58
2022-08-23T10:53:54.338Z,25.05
2022-08-23T10:56:21.105Z,25.71
2022-08-23T10:58:51.601Z,25.66
2022-08-23T11:01:21.901Z,25.68
2022-08-23T11:04:01.740Z,25.60
2022-08-23T11:06:47.509Z,24.91
2022-08-23T11:09:50.284Z,24.92
2022-08-23T11:12:32.704Z,25.48
2022-08-23T11:15:13.300Z,25.49
2022-08-23T11:17:54.766Z,25.17
2022-08-23T11:21:03.439Z,24.70
2022-08-23T11:23:51.756Z,25.01
2022-08-23T11:27:05.365Z,24.70
2022-08-23T11:29:40.357Z,25.70
2022-08-23T11:32:36.900Z,24.68
2022-08-23T11:35:30.444Z,25.18
2022-08-23T11:38:04.101Z,24.99
2022-08-23T11:40:41.028Z,25.00
2022-08-23T11:43:11.922Z,24.98
2022-08-23T11:45:44.202Z,24.76
2022-08-23T11:48:18.638Z,23.76
2022-08-23T11:51:18.199Z,23.61
2022-08-23T11:54:04.388Z,23.03
2022-08-23T12:00:17.468Z,23.36
2022-08-23T12:03:22.097Z,23.77
2022-08-23T12:06:34.640Z,23.97
2022-08-23T12:09:13.836Z,23.53
2022-08-23T12:12:25.219Z,23.43
2022-08-23T12:14:54.991Z,23.30
2022-08-23T12:18:05.912Z,23.40
2022-08-23T12:20:34.859Z,23.78
2022-08-23T12:23:17.904Z,23.02
2022-08-23T12:25:46.035Z,23.56
2022-08-23T12:28:30.143Z,24.02
2022-08-23T12:31:08.043Z,23.96
2022-08-23T12:33:55.013Z,23.31
2022-08-23T12:36:35.259Z,23.04
2022-08-23T12:39:06.442Z,23.59
2022-08-23T12:41:52.105Z,23.48
2022-08-23T12:44:23.410Z,23.77
2022-08-23T12:46:50.913Z,23.78
2022-08-23T12:49:38.616Z,23.28
2022-08-23T12:52:17.781Z,23.75
2022-08-23T12:54:49.908Z,23.34
2022-08-23T12:57:31.283Z,23.65
2022-08-23T13:00:28.694Z,23.59
2022-08-23T13:03:21.969Z,23.41
2022-08-23T13:06:15.978Z,23.17
2022-08-23T13:09:09.389Z,23.49
2022-08-23T13:11:38.923Z,23.20
2022-08-23T13:14:25.732Z,22.83
2022-08-23T13:16:53.614Z,22.65
2022-08-23T13:19:57.247Z,22.94
2022-08-23T13:22:29.832Z,23.16
2022-08-23T13:27:56.140Z,23.16
2022-08-23T13:30:27.017Z,23.18
2022-08-23T13:33:20.779Z,23.07
2022-08-23T13:35:50.629Z,23.38
2022-08-23T13:38:24.735Z,23.27
2022-08-23T13:41:01.171Z,23.63
2022-08-23T13:43:33.378Z,23.29
2022-08-23T13:46:12.811Z,23.92
2022-08-23T13:48:47.719Z,22.98
2022-08-23T13:51:27.006Z,23.32
2022-08-23T13:53:54.438Z,23.42
2022-08-23T13:56:21.961Z,23.49
2022-08-23T13:58:55.076Z,23.16
2022-08-23T14:01:23.547Z,23.42
2022-08-23T14:04:07.844Z,23.55
2022-08-23T14:06:34.700Z,23.68
2022-08-23T14:09:01.276Z,23.34
2022-08-23T14:11:28.047Z,24.01
2022-08-23T14:13:54.645Z,24.28
2022-08-23T14:16:39.285Z,24.28
2022-08-23T14:19:18.114Z,24.35
2022-08-23T14:21:54.991Z,24.21
2022-08-23T14:24:21.573Z,24.37
2022-08-23T14:26:50.209Z,23.96
2022-08-23T14:29:18.846Z,24.53
2022-08-23T14:31:50.177Z,24.70
2022-08-23T14:34:16.756Z,24.58
2022-08-23T14:37:21.663Z,24.99
2022-08-23T14:39:30.191Z,24.30
2022-08-23T14:41:57.369Z,24.19
2022-08-23T14:44:24.222Z,24.31
2022-08-23T14:46:52.181Z,24.47
2022-08-23T14:49:20.610Z,24.24
2022-08-23T14:51:49.525Z,24.11
2022-08-23T14:54:20.914Z,23.43
2022-08-23T14:56:47.910Z,23.32
2022-08-23T14:59:14.564Z,23.78
2022-08-23T15:01:45.019Z,23.98
2022-08-23T15:04:18.753Z,24.52
2022-08-23T15:07:07.051Z,24.41
2022-08-23T15:09:32.950Z,24.53
2022-08-23T15:14:46.580Z,24.19
2022-08-23T15:17:16.351Z,25.28
2022-08-23T15:19:44.300Z,25.01
2022-08-23T15:22:18.594Z,25.54
2022-08-23T15:24:48.791Z,25.47
2022-08-23T15:27:15.383Z,25.05
2022-08-23T15:29:42.075Z,24.76
2022-08-23T15:32:08.727Z,24.95
2022-08-23T15:34:37.238Z,25.11
2022-08-23T15:38:01.822Z,25.64
2022-08-23T15:40:30.043Z,25.56
2022-08-23T15:42:56.971Z,25.32
2022-08-23T15:45:25.831Z,25.67
2022-08-23T15:47:55.187Z,25.85
2022-08-23T15:50:24.396Z,26.03
2022-08-23T15:52:51.720Z,26.35
2022-08-23T15:55:19.195Z,26.79
2022-08-23T15:57:49.180Z,26.79
2022-08-23T16:00:25.614Z,26.90
2022-08-23T16:03:19.557Z,27.29
2022-08-23T16:05:43.408Z,27.38
2022-08-23T16:08:21.882Z,27.70
2022-08-23T16:10:48.664Z,27.01
2022-08-23T16:13:16.900Z,27.39
2022-08-23T16:15:43.762Z,27.81
2022-08-23T16:18:11.899Z,27.79
2022-08-23T16:20:38.552Z,27.70
2022-08-23T16:23:05.453Z,27.74
2022-08-23T16:25:32.226Z,27.83
2022-08-23T16:28:07.392Z,27.84
2022-08-23T16:30:36.201Z,28.17
2022-08-23T16:33:04.212Z,28.34
2022-08-23T16:35:33.934Z,28.21
2022-08-23T16:38:00.481Z,28.01
2022-08-23T16:40:33.223Z,28.15
2022-08-23T16:43:12.031Z,28.39
2022-08-23T16:45:40.127Z,28.22
2022-08-23T16:48:06.756Z,28.47
2022-08-23T16:50:33.783Z,28.74
2022-08-23T16:53:04.957Z,28.76
2022-08-23T16:55:37.432Z,28.92
2022-08-23T16:58:05.259Z,29.09
2022-08-23T17:00:32.479Z,29.43
2022-08-23T17:03:06.228Z,29.75
2022-08-23T17:05:32.994Z,30.12
2022-08-23T17:08:45.978Z,30.11
2022-08-23T17:11:17.036Z,30.39
2022-08-23T17:21:47.923Z,30.69
2022-08-23T17:24:16.822Z,30.59
2022-08-23T17:27:12.272Z,30.70
2022-08-23T17:29:51.680Z,30.66
2022-08-23T17:32:24.614Z,31.17
2022-08-23T17:34:51.874Z,30.60
2022-08-23T17:37:25.915Z,31.30
2022-08-23T17:39:58.475Z,31.40
2022-08-23T17:42:25.106Z,31.61
2022-08-23T17:44:52.074Z,31.69
2022-08-23T17:47:27.577Z,31.67
2022-08-23T17:50:25.236Z,31.62
2022-08-23T17:52:53.315Z,32.12
2022-08-23T17:55:21.345Z,32.30
2022-08-23T17:57:48.465Z,32.14
2022-08-23T18:00:23.670Z,32.24
2022-08-23T18:02:50.360Z,32.46
2022-08-23T18:05:19.894Z,32.38
2022-08-23T18:07:46.672Z,32.07
2022-08-23T18:10:19.812Z,32.21
2022-08-23T18:12:46.730Z,32.11
2022-08-23T18:15:14.841Z,32.31
2022-08-23T18:17:41.607Z,32.67
2022-08-23T18:20:09.948Z,32.93
2022-08-23T18:22:38.600Z,33.67
2022-08-23T18:25:09.232Z,33.62
2022-08-23T18:27:39.547Z,34.10
2022-08-23T18:30:10.041Z,34.48
2022-08-23T18:32:36.793Z,34.99
2022-08-23T18:35:04.387Z,35.40
2022-08-23T18:37:32.386Z,34.89
2022-08-23T18:39:59.556Z,35.46
2022-08-23T18:42:26.695Z,35.68
2022-08-23T18:44:54.806Z,35.90
2022-08-23T18:47:21.525Z,35.86
2022-08-23T18:49:48.278Z,35.80
2022-08-23T18:52:15.073Z,36.10
2022-08-23T18:54:41.764Z,36.30
2022-08-23T18:57:15.959Z,36.95
2022-08-23T18:59:43.021Z,36.62
2022-08-23T19:02:11.548Z,36.86
2022-08-23T19:04:38.493Z,37.16
2022-08-23T19:07:05.231Z,36.60
2022-08-23T19:09:31.849Z,36.52
2022-08-23T19:11:58.810Z,36.60
2022-08-23T19:14:25.653Z,36.41
2022-08-23T19:16:52.440Z,36.68
2022-08-23T19:19:21.384Z,37.11
2022-08-23T19:21:50.636Z,37.84
2022-08-23T19:24:17.758Z,37.43
2022-08-23T19:26:44.896Z,37.84
2022-08-23T19:29:11.583Z,37.82
2022-08-23T19:31:41.830Z,38.14
2022-08-23T19:34:09.028Z,38.14
2022-08-23T19:36:46.254Z,38.77
2022-08-23T19:39:16.899Z,38.28
2022-08-23T19:41:44.062Z,38.44
2022-08-23T19:44:11.031Z,38.63
2022-08-23T19:46:38.196Z,38.51
2022-08-23T19:49:06.974Z,38.62
2022-08-23T19:51:34.095Z,38.31
2022-08-23T19:54:02.625Z,38.52
2022-08-23T19:56:29.984Z,37.92
2022-08-23T19:58:57.268Z,39.44
2022-08-23T20:02:02.786Z,39.44
2022-08-23T20:04:32.322Z,39.24
2022-08-23T20:07:01.023Z,39.09
2022-08-23T20:09:30.557Z,37.25
2022-08-23T20:11:58.218Z,37.57
2022-08-23T20:14:26.761Z,38.19
2022-08-23T20:16:55.974Z,37.82
2022-08-23T20:19:25.944Z,38.43
2022-08-23T20:21:53.199Z,38.55
2022-08-23T20:24:28.946Z,38.34
2022-08-23T20:27:24.199Z,38.67
2022-08-23T20:29:59.884Z,38.77
2022-08-23T20:32:27.560Z,39.08
2022-08-23T20:34:54.290Z,38.94
2022-08-23T20:37:21.462Z,38.52
2022-08-23T20:39:51.817Z,38.48
2022-08-23T20:42:21.567Z,37.02
2022-08-23T20:44:48.240Z,37.00
2022-08-23T20:47:15.127Z,37.02
2022-08-23T20:49:41.889Z,36.87
2022-08-23T20:52:08.809Z,36.53
2022-08-23T20:54:36.163Z,38.07
2022-08-23T20:57:03.244Z,37.18
2022-08-23T20:59:31.407Z,38.50
2022-08-23T21:01:58.199Z,36.93
2022-08-23T21:04:29.915Z,38.46
2022-08-23T21:06:59.061Z,37.51
2022-08-23T21:09:29.146Z,36.79
2022-08-23T21:11:57.306Z,37.52
2022-08-23T21:14:24.411Z,37.03
2022-08-23T21:16:52.708Z,37.28
2022-08-23T21:19:19.605Z,37.85
2022-08-23T21:21:46.876Z,37.21
2022-08-23T21:24:13.712Z,37.22
2022-08-23T21:26:41.703Z,37.43
2022-08-23T21:29:09.149Z,37.31
2022-08-23T21:31:36.374Z,36.53
2022-08-23T21:34:04.830Z,36.90
2022-08-23T21:36:31.803Z,37.53
2022-08-23T21:38:58.434Z,38.51
2022-08-23T21:41:33.145Z,38.52
2022-08-23T21:44:00.739Z,38.56
2022-08-23T21:46:28.088Z,38.81
2022-08-23T21:48:57.107Z,39.17
2022-08-23T21:51:25.257Z,39.20
2022-08-23T21:53:52.097Z,39.04
2022-08-23T21:56:18.893Z,39.55
2022-08-23T21:58:45.686Z,39.42
2022-08-23T22:01:18.177Z,39.43
2022-08-23T22:03:45.135Z,39.16
2022-08-23T22:06:13.159Z,39.07
2022-08-23T22:08:43.232Z,39.59
2022-08-23T22:11:11.769Z,38.72
2022-08-23T22:13:39.422Z,38.60
2022-08-23T22:16:06.638Z,38.24
2022-08-23T22:18:34.187Z,39.10
2022-08-23T22:21:01.619Z,40.00
2022-08-23T22:23:29.659Z,39.56
2022-08-23T22:25:58.007Z,39.54
2022-08-23T22:28:25.679Z,39.04
2022-08-23T22:30:58.887Z,38.88
2022-08-23T22:34:00.616Z,38.74
2022-08-23T22:36:27.278Z,38.74
2022-08-23T22:38:53.953Z,38.97
2022-08-23T22:41:23.934Z,39.30
2022-08-23T22:43:52.850Z,39.12
2022-08-23T22:46:19.650Z,38.90
2022-08-23T22:48:46.850Z,39.22
2022-08-23T22:51:15.361Z,39.46
2022-08-23T22:53:44.148Z,40.21
2022-08-23T22:56:12.328Z,40.17
2022-08-23T22:58:40.412Z,40.38
2022-08-23T23:01:13.071Z,40.91
2022-08-23T23:03:41.320Z,40.52
2022-08-23T23:06:08.593Z,40.78
2022-08-23T23:08:35.200Z,40.41
2022-08-23T23:11:31.150Z,41.14
2022-08-23T23:13:59.146Z,41.00
2022-08-23T23:16:28.090Z,40.76
2022-08-23T23:18:55.864Z,40.41
2022-08-23T23:21:22.415Z,40.64
2022-08-23T23:23:49.064Z,40.38
2022-08-23T23:26:15.682Z,40.72
2022-08-23T23:28:42.267Z,40.76
2022-08-23T23:31:10.470Z,41.16
2022-08-23T23:33:37.035Z,40.98
2022-08-23T23:36:04.032Z,41.51
2022-08-23T23:38:30.569Z,41.65
2022-08-23T23:40:57.215Z,41.86
2022-08-23T23:43:23.852Z,42.03
2022-08-23T23:45:50.430Z,41.42
2022-08-23T23:48:18.547Z,41.74
2022-08-23T23:50:45.558Z,41.55
2022-08-23T23:53:13.962Z,41.35
2022-08-23T23:55:41.071Z,41.74
2022-08-23T23:58:07.788Z,42.11
